Time;durP1;ratioP1;P1;durP2;ratioP2;P2;SDS_P1;SDS_P2;PMS_P1;PMS_P2;Temp;Humidity;BMP_temperature;BMP_pressure;BME280_temperature;BME280_humidity;BME280_pressure;Samples;Min_cycle;Max_cycle;Signal;HPM_P1;HPM_P2
2022/08/04 00:01:16;;;;;;;1.20;0.40;;;21.00;99.90;;;;;;5086728;28;20071;-81
2022/08/04 00:03:51;;;;;;;1.10;0.40;;;20.90;99.90;;;;;;5087348;28;20024;-82
2022/08/04 00:06:41;;;;;;;1.33;0.38;;;20.90;99.90;;;;;;5067918;28;20404;-84
2022/08/04 00:09:20;;;;;;;1.05;0.40;;;20.80;99.90;;;;;;5089156;28;20055;-80
2022/08/04 00:11:49;;;;;;;0.93;0.30;;;20.70;99.90;;;;;;5086800;28;20102;-86
2022/08/04 00:14:18;;;;;;;2.25;0.50;;;20.70;99.90;;;;;;5088690;28;20036;-82
2022/08/04 00:16:48;;;;;;;1.10;0.30;;;20.70;99.90;;;;;;5090445;28;20063;-82
2022/08/04 00:19:21;;;;;;;;;;;20.60;99.90;;;;;;5089587;28;20024;-81
2022/08/04 00:21:54;;;;;;;1.23;0.40;;;20.50;99.90;;;;;;5084006;28;19969;-81
2022/08/04 00:24:21;;;;;;;2.30;0.40;;;20.50;99.90;;;;;;5084182;28;20050;-81
2022/08/04 00:26:47;;;;;;;1.38;0.40;;;20.60;99.90;;;;;;5086132;28;20472;-82
2022/08/04 00:29:13;;;;;;;2.60;0.55;;;20.60;99.90;;;;;;5089684;28;20031;-79
2022/08/04 00:31:42;;;;;;;2.00;0.40;;;20.50;99.90;;;;;;5089583;28;20115;-81
2022/08/04 00:34:10;;;;;;;1.40;0.60;;;20.40;99.90;;;;;;5072566;28;20024;-80
2022/08/04 00:36:37;;;;;;;1.20;0.40;;;20.30;99.90;;;;;;5086385;28;20063;-81
2022/08/04 00:39:02;;;;;;;2.92;0.40;;;20.30;99.90;;;;;;5066699;28;20295;-80
2022/08/04 00:42:05;;;;;;;1.73;0.43;;;20.40;99.90;;;;;;5089345;28;20038;-82
2022/08/04 00:44:40;;;;;;;1.60;0.40;;;20.30;99.90;;;;;;5087115;28;20024;-82
2022/08/04 00:47:42;;;;;;;1.00;0.40;;;20.30;99.90;;;;;;5085702;28;20032;-82
2022/08/04 00:50:20;;;;;;;1.33;0.40;;;20.20;99.90;;;;;;5086780;28;20024;-80
2022/08/04 00:52:46;;;;;;;1.73;0.43;;;20.10;99.90;;;;;;5082042;28;20502;-83
2022/08/04 00:55:12;;;;;;;2.42;0.60;;;20.20;99.90;;;;;;5085256;28;20028;-84
2022/08/04 00:57:46;;;;;;;1.67;0.47;;;20.10;99.90;;;;;;5085180;28;20536;-82
2022/08/04 01:00:14;;;;;;;1.60;0.52;;;20.10;99.90;;;;;;5088282;28;20433;-85
2022/08/04 01:02:49;;;;;;;1.08;0.40;;;20.00;99.90;;;;;;5085671;28;20111;-86
2022/08/04 01:05:35;;;;;;;2.15;0.50;;;20.00;99.90;;;;;;5087391;28;20028;-80
2022/08/04 01:08:28;;;;;;;2.25;0.40;;;20.00;99.90;;;;;;5086356;28;20066;-80
2022/08/04 01:11:17;;;;;;;1.92;0.40;;;19.90;99.90;;;;;;5084553;28;20035;-79
2022/08/04 01:14:10;;;;;;;3.58;0.50;;;19.90;99.90;;;;;;5083945;28;20468;-79
2022/08/04 01:16:49;;;;;;;1.83;0.57;;;19.90;99.90;;;;;;5086855;28;20031;-83
2022/08/04 01:19:36;;;;;;;1.52;0.40;;;20.00;99.90;;;;;;5088030;28;20141;-81
2022/08/04 01:22:10;;;;;;;1.25;0.40;;;20.10;99.90;;;;;;5084997;28;20033;-84
2022/08/04 01:24:45;;;;;;;1.42;0.40;;;20.20;99.90;;;;;;5066098;28;20023;-85
2022/08/04 01:27:26;;;;;;;1.17;0.35;;;20.30;99.90;;;;;;5082386;28;20060;-81
2022/08/04 01:29:56;;;;;;;1.30;0.30;;;20.30;99.90;;;;;;5084843;28;20027;-81
2022/08/04 01:32:35;;;;;;;2.70;0.40;;;20.20;99.90;;;;;;5087570;28;20025;-81
2022/08/04 01:35:24;;;;;;;1.30;0.30;;;20.20;99.90;;;;;;5086808;28;20039;-82
2022/08/04 01:38:06;;;;;;;2.00;0.30;;;20.20;99.90;;;;;;5084328;28;20024;-80
2022/08/04 01:40:34;;;;;;;0.70;0.30;;;20.30;99.90;;;;;;5084207;28;20464;-80
2022/08/04 01:43:02;;;;;;;2.88;0.30;;;20.30;99.90;;;;;;5086480;28;20120;-89
2022/08/04 01:45:29;;;;;;;1.42;0.30;;;20.40;99.90;;;;;;5087237;28;20037;-81
2022/08/04 01:47:56;;;;;;;2.47;0.35;;;20.30;99.90;;;;;;5085536;28;20040;-82
2022/08/04 01:50:23;;;;;;;0.93;0.30;;;20.20;99.90;;;;;;5085773;28;20024;-81
2022/08/04 01:52:52;;;;;;;1.75;0.30;;;20.20;99.90;;;;;;5085190;28;20131;-81
2022/08/04 01:55:18;;;;;;;2.05;0.30;;;20.30;99.90;;;;;;5085260;28;20036;-80
2022/08/04 01:57:50;;;;;;;1.40;0.30;;;20.30;99.90;;;;;;5087346;28;20024;-83
2022/08/04 02:00:27;;;;;;;1.02;0.30;;;20.20;99.90;;;;;;5087892;28;20082;-83
2022/08/04 02:02:54;;;;;;;1.50;0.30;;;20.10;99.90;;;;;;5068152;28;20039;-82
2022/08/04 02:05:22;;;;;;;2.13;0.40;;;20.20;99.90;;;;;;5066522;28;20028;-81
2022/08/04 02:08:03;;;;;;;2.22;0.40;;;20.30;99.90;;;;;;5083868;28;20086;-83
2022/08/04 02:10:50;;;;;;;2.25;0.20;;;20.30;99.90;;;;;;5067598;28;20028;-80
2022/08/04 02:13:36;;;;;;;1.65;0.40;;;20.50;99.90;;;;;;5085856;28;20034;-80
2022/08/04 02:16:09;;;;;;;1.65;0.30;;;20.50;99.90;;;;;;5085364;28;20456;-87
2022/08/04 02:18:58;;;;;;;1.85;0.20;;;20.40;99.90;;;;;;5085337;28;20089;-83
2022/08/04 02:21:26;;;;;;;1.92;0.30;;;20.50;99.90;;;;;;5082126;28;20106;-81
2022/08/04 02:24:01;;;;;;;1.13;0.25;;;20.70;99.90;;;;;;5070248;28;20455;-83
2022/08/04 02:26:28;;;;;;;2.47;0.30;;;20.70;99.90;;;;;;5082352;28;20055;-83
2022/08/04 02:29:09;;;;;;;1.58;0.20;;;20.70;99.90;;;;;;5085743;28;20032;-80
2022/08/04 02:31:51;;;;;;;1.25;0.30;;;20.70;99.90;;;;;;5086609;28;20104;-81
2022/08/04 02:34:42;;;;;;;2.13;0.30;;;20.70;99.90;;;;;;5068131;28;20024;-80
2022/08/04 02:37:09;;;;;;;1.10;0.30;;;20.70;99.90;;;;;;5085052;28;20028;-82
2022/08/04 02:39:36;;;;;;;2.42;0.20;;;20.80;99.90;;;;;;5086909;28;20057;-81
2022/08/04 02:42:03;;;;;;;1.02;0.20;;;20.80;99.90;;;;;;5089047;28;20033;-80
2022/08/04 02:44:31;;;;;;;1.50;0.30;;;20.80;99.90;;;;;;5089751;28;20028;-83
2022/08/04 02:46:59;;;;;;;1.85;0.28;;;20.90;99.90;;;;;;5087971;28;20540;-81
2022/08/04 02:49:25;;;;;;;2.28;0.47;;;20.90;99.90;;;;;;5091693;28;20039;-82
2022/08/04 02:51:53;;;;;;;1.50;0.30;;;21.00;99.90;;;;;;5088696;28;20108;-84
2022/08/04 02:54:26;;;;;;;0.43;0.20;;;21.10;99.90;;;;;;5089025;28;20036;-83
2022/08/04 02:56:54;;;;;;;4.20;0.30;;;21.10;99.90;;;;;;5087142;28;20032;-80
2022/08/04 02:59:24;;;;;;;3.30;0.30;;;21.10;99.90;;;;;;5074261;28;20039;-80
2022/08/04 03:01:53;;;;;;;3.83;0.20;;;21.10;99.90;;;;;;5088595;28;20036;-81
2022/08/04 03:04:19;;;;;;;2.55;0.28;;;21.20;99.90;;;;;;5088044;28;20028;-81
2022/08/04 03:07:16;;;;;;;1.30;0.20;;;21.10;99.90;;;;;;5086322;28;20073;-81
2022/08/04 03:10:00;;;;;;;3.42;0.30;;;21.00;99.90;;;;;;5087669;28;20024;-80
2022/08/04 03:12:44;;;;;;;1.80;0.30;;;21.10;99.90;;;;;;5085147;28;20024;-85
2022/08/04 03:15:24;;;;;;;2.00;0.20;;;21.20;99.90;;;;;;5088020;28;20483;-81
2022/08/04 03:18:14;;;;;;;2.47;0.20;;;21.20;99.90;;;;;;5087719;28;20024;-81
2022/08/04 03:21:11;;;;;;;1.63;0.20;;;21.10;99.90;;;;;;5087822;28;20028;-82
2022/08/04 03:23:45;;;;;;;1.95;0.20;;;21.20;99.90;;;;;;5085158;28;20438;-85
2022/08/04 03:26:29;;;;;;;2.70;0.20;;;21.20;99.90;;;;;;5088174;28;20024;-84
2022/08/04 03:29:15;;;;;;;1.50;0.20;;;21.20;99.90;;;;;;5082822;28;20028;-83
2022/08/04 03:32:19;;;;;;;2.17;0.20;;;21.20;99.90;;;;;;5087131;28;20024;-83
2022/08/04 03:35:15;;;;;;;0.82;0.20;;;21.30;99.90;;;;;;5077556;28;20032;-81
2022/08/04 03:37:49;;;;;;;1.20;0.20;;;21.20;99.90;;;;;;5101418;28;20477;-81
2022/08/04 03:40:27;;;;;;;2.60;0.20;;;21.20;99.90;;;;;;5086752;28;20128;-83
2022/08/04 03:43:11;;;;;;;1.42;0.13;;;21.20;99.90;;;;;;5083944;28;20089;-83
2022/08/04 03:45:55;;;;;;;1.60;0.20;;;21.30;99.90;;;;;;5085550;28;20024;-80
2022/08/04 03:48:33;;;;;;;3.42;0.15;;;21.20;99.90;;;;;;5071927;28;20032;-80
2022/08/04 03:54:11;;;;;;;1.65;0.20;;;21.10;99.90;;;;;;5087449;28;20035;-77
2022/08/04 03:56:51;;;;;;;2.78;0.20;;;21.20;99.90;;;;;;5088370;28;20032;-79
2022/08/04 03:59:35;;;;;;;3.00;0.20;;;21.10;99.90;;;;;;5088188;28;20376;-83
2022/08/04 04:02:27;;;;;;;2.28;0.20;;;21.20;99.90;;;;;;5085085;28;20036;-80
2022/08/04 04:05:03;;;;;;;2.22;0.30;;;21.10;99.90;;;;;;5050141;28;20067;-79
2022/08/04 04:07:44;;;;;;;1.83;0.20;;;21.10;99.90;;;;;;5086255;28;20453;-80
2022/08/04 04:10:26;;;;;;;3.63;0.30;;;21.10;99.90;;;;;;5087461;28;20025;-89
2022/08/04 04:13:17;;;;;;;3.08;0.20;;;21.10;99.90;;;;;;5085863;28;20472;-79
2022/08/04 04:16:05;;;;;;;3.80;0.30;;;21.10;99.90;;;;;;5083464;28;20119;-80
2022/08/04 04:18:49;;;;;;;9.45;0.28;;;21.10;99.90;;;;;;5086541;28;20085;-80
2022/08/04 04:21:31;;;;;;;2.92;0.40;;;21.20;99.90;;;;;;5085796;28;20521;-80
2022/08/04 04:24:23;;;;;;;3.20;0.20;;;21.20;99.90;;;;;;5083728;28;20486;-80
2022/08/04 04:26:54;;;;;;;7.07;0.28;;;21.20;99.90;;;;;;5079296;28;20035;-86
2022/08/04 04:29:51;;;;;;;3.05;0.50;;;21.40;99.90;;;;;;5088636;28;20032;-82
2022/08/04 04:32:35;;;;;;;2.80;0.30;;;21.40;99.90;;;;;;5071760;28;20036;-80
2022/08/04 04:35:35;;;;;;;1.95;0.20;;;21.40;99.90;;;;;;5063982;28;20028;-80
2022/08/04 04:38:09;;;;;;;0.85;0.20;;;21.50;99.90;;;;;;5075088;28;20119;-78
2022/08/04 04:41:03;;;;;;;2.67;0.20;;;21.60;99.90;;;;;;5046267;28;20041;-81
2022/08/04 04:43:38;;;;;;;1.83;0.22;;;21.70;99.90;;;;;;5063315;28;20074;-85
2022/08/04 04:46:20;;;;;;;5.80;0.20;;;21.80;99.90;;;;;;5063878;28;20031;-80
2022/08/04 04:49:04;;;;;;;1.33;0.22;;;21.80;99.90;;;;;;5067452;28;20025;-80
2022/08/04 04:51:49;;;;;;;3.47;0.28;;;21.90;99.90;;;;;;5064181;28;20020;-82
2022/08/04 04:54:20;;;;;;;3.58;0.30;;;22.00;99.90;;;;;;5038965;28;20557;-80
2022/08/04 04:57:04;;;;;;;2.60;0.20;;;22.20;99.90;;;;;;5051254;28;20017;-85
2022/08/04 04:59:33;;;;;;;1.88;0.25;;;22.20;99.90;;;;;;5065969;28;20108;-82
2022/08/04 05:02:25;;;;;;;2.53;0.20;;;22.30;99.90;;;;;;5050283;28;20076;-83
2022/08/04 05:05:18;;;;;;;2.20;0.30;;;22.30;99.90;;;;;;5064211;28;20043;-81
2022/08/04 05:08:21;;;;;;;1.92;0.20;;;22.40;99.90;;;;;;5065262;28;20111;-83
2022/08/04 05:10:47;;;;;;;2.13;0.20;;;22.60;99.90;;;;;;5065858;28;20021;-83
2022/08/04 05:13:37;;;;;;;3.75;0.22;;;22.60;99.90;;;;;;5024190;28;20037;-87
2022/08/04 05:16:14;;;;;;;1.98;0.30;;;22.60;99.90;;;;;;5064510;28;20082;-81
2022/08/04 05:18:44;;;;;;;2.05;0.20;;;22.80;99.90;;;;;;5063388;28;20373;-84
2022/08/04 05:21:32;;;;;;;;;;;22.80;99.90;;;;;;5062941;28;20033;-80
2022/08/04 05:24:03;;;;;;;3.47;0.50;;;22.80;99.90;;;;;;5061767;28;20349;-80
2022/08/04 05:26:34;;;;;;;4.85;0.50;;;22.90;99.90;;;;;;5046168;28;20025;-81
2022/08/04 05:29:05;;;;;;;6.78;0.50;;;23.00;99.90;;;;;;5057872;28;20024;-81
2022/08/04 05:31:36;;;;;;;8.40;0.60;;;23.00;99.90;;;;;;5066938;28;20033;-81
2022/08/04 05:34:25;;;;;;;6.03;0.80;;;22.90;99.90;;;;;;5030716;28;20024;-80
2022/08/04 05:36:58;;;;;;;4.80;0.65;;;22.80;99.90;;;;;;5047131;28;20091;-82
2022/08/04 05:39:27;;;;;;;4.00;0.60;;;22.80;99.90;;;;;;5064983;28;20485;-83
2022/08/04 05:41:55;;;;;;;10.63;1.00;;;23.00;99.90;;;;;;5031434;28;20048;-82
2022/08/04 05:44:23;;;;;;;4.97;0.60;;;23.00;99.90;;;;;;5065213;28;20024;-82
2022/08/04 05:46:53;;;;;;;9.35;0.70;;;23.10;99.90;;;;;;5061799;28;20091;-81
2022/08/04 05:49:20;;;;;;;5.25;0.85;;;23.30;99.90;;;;;;5049536;28;20402;-84
2022/08/04 05:51:48;;;;;;;7.97;0.68;;;23.30;99.90;;;;;;5051977;28;20036;-82
2022/08/04 05:54:15;;;;;;;3.00;0.50;;;23.30;99.90;;;;;;5050491;28;20764;-87
2022/08/04 05:56:41;;;;;;;4.07;1.05;;;23.20;99.90;;;;;;5031589;28;20028;-87
2022/08/04 05:59:10;;;;;;;3.55;0.70;;;23.20;99.90;;;;;;5050413;28;20361;-86
2022/08/04 06:01:38;;;;;;;7.65;0.80;;;23.30;99.90;;;;;;5065670;28;20082;-81
2022/08/04 06:04:05;;;;;;;3.83;0.40;;;23.30;99.90;;;;;;5047309;28;20024;-81
2022/08/04 06:06:31;;;;;;;2.70;0.50;;;23.40;99.90;;;;;;5030954;28;20051;-84
2022/08/04 06:08:57;;;;;;;2.55;0.60;;;23.40;99.90;;;;;;5032513;28;20020;-83
2022/08/04 06:11:26;;;;;;;3.42;0.60;;;23.40;99.90;;;;;;5065195;28;20075;-81
2022/08/04 06:13:57;;;;;;;2.58;0.70;;;23.40;99.90;;;;;;5043095;28;20028;-81
2022/08/04 06:16:25;;;;;;;3.33;0.50;;;23.50;99.90;;;;;;5064276;28;20166;-80
2022/08/04 06:18:53;;;;;;;4.18;0.60;;;23.50;99.90;;;;;;5043664;28;21118;-82
2022/08/04 06:21:23;;;;;;;3.72;0.55;;;23.60;99.90;;;;;;5054828;28;20111;-82
2022/08/04 06:23:51;;;;;;;2.17;0.40;;;23.70;99.90;;;;;;5028849;28;20380;-84
2022/08/04 06:26:18;;;;;;;2.17;0.50;;;23.80;99.90;;;;;;5050674;28;20435;-81
2022/08/04 06:28:49;;;;;;;1.80;0.40;;;23.80;99.90;;;;;;5063365;28;20107;-81
2022/08/04 06:31:31;;;;;;;2.85;0.52;;;23.90;99.90;;;;;;5047651;28;20028;-81
2022/08/04 06:34:01;;;;;;;2.28;0.40;;;24.10;99.90;;;;;;5044384;28;20475;-81
2022/08/04 06:36:29;;;;;;;4.00;0.65;;;24.00;99.90;;;;;;5033206;28;20032;-82
2022/08/04 06:38:57;;;;;;;4.88;0.70;;;24.00;99.90;;;;;;5041782;28;20052;-81
2022/08/04 06:41:23;;;;;;;5.18;0.65;;;24.00;99.90;;;;;;5063964;28;20068;-80
2022/08/04 06:43:50;;;;;;;5.55;0.80;;;24.10;99.90;;;;;;5045772;28;20292;-84
2022/08/04 06:46:17;;;;;;;3.15;0.50;;;24.20;99.90;;;;;;5049526;28;20396;-81
2022/08/04 06:48:45;;;;;;;4.68;1.00;;;24.30;99.90;;;;;;5034286;28;20090;-82
2022/08/04 06:51:13;;;;;;;4.00;0.68;;;24.40;99.90;;;;;;5043347;28;20132;-81
2022/08/04 06:53:39;;;;;;;4.07;0.70;;;24.50;99.90;;;;;;5061969;28;20025;-82
2022/08/04 06:56:05;;;;;;;3.63;0.75;;;24.40;99.90;;;;;;5049153;28;20379;-81
2022/08/04 06:58:32;;;;;;;5.85;0.80;;;24.60;99.90;;;;;;5047792;28;20033;-82
2022/08/04 07:01:00;;;;;;;5.32;0.90;;;24.60;99.90;;;;;;5031726;28;20063;-84
2022/08/04 07:03:28;;;;;;;4.75;0.98;;;24.70;99.90;;;;;;5042892;28;20037;-81
2022/08/04 07:05:54;;;;;;;3.00;0.70;;;24.90;99.90;;;;;;5032655;28;20414;-81
2022/08/04 07:08:21;;;;;;;3.28;0.70;;;24.80;99.90;;;;;;5032917;28;20032;-81
2022/08/04 07:10:47;;;;;;;3.92;0.90;;;24.80;99.90;;;;;;5049329;28;20059;-82
2022/08/04 07:13:14;;;;;;;5.10;0.70;;;25.00;99.90;;;;;;5050274;28;20039;-82
2022/08/04 07:15:45;;;;;;;3.45;0.50;;;25.10;99.90;;;;;;5063306;28;20056;-81
2022/08/04 07:18:11;;;;;;;3.15;0.80;;;25.40;99.90;;;;;;5047088;28;20385;-82
2022/08/04 07:20:43;;;;;;;4.20;0.80;;;25.60;99.90;;;;;;5051447;28;20032;-85
2022/08/04 07:23:10;;;;;;;4.78;0.82;;;25.80;99.90;;;;;;5061921;28;20021;-82
2022/08/04 07:25:36;;;;;;;7.95;1.13;;;26.10;99.90;;;;;;5032058;28;20029;-82
2022/08/04 07:28:02;;;;;;;4.72;0.80;;;25.90;99.90;;;;;;5044152;28;20029;-83
2022/08/04 07:30:30;;;;;;;2.65;0.57;;;26.00;99.90;;;;;;5063346;28;20024;-80
2022/08/04 07:32:56;;;;;;;4.45;0.95;;;26.20;99.90;;;;;;5042410;28;20035;-83
2022/08/04 07:35:23;;;;;;;4.00;0.85;;;26.20;99.90;;;;;;5060281;28;20029;-81
2022/08/04 07:37:49;;;;;;;3.78;0.50;;;26.60;99.90;;;;;;5031138;28;20040;-82
2022/08/04 07:40:15;;;;;;;7.30;0.85;;;27.20;99.90;;;;;;5042559;28;20048;-82
2022/08/04 07:42:42;;;;;;;5.32;0.60;;;26.70;99.90;;;;;;5031201;28;20052;-82
2022/08/04 07:45:09;;;;;;;5.63;0.70;;;27.00;99.90;;;;;;5043228;28;20032;-82
2022/08/04 07:47:35;;;;;;;4.38;0.75;;;27.50;99.90;;;;;;5048183;28;20032;-82
2022/08/04 07:50:01;;;;;;;5.55;0.73;;;27.80;99.90;;;;;;5059494;28;20024;-82
2022/08/04 07:52:27;;;;;;;2.40;0.40;;;28.10;99.90;;;;;;5047596;28;20418;-83
2022/08/04 07:54:53;;;;;;;5.88;0.90;;;27.80;99.90;;;;;;5032422;28;20295;-84
2022/08/04 07:57:19;;;;;;;4.15;0.65;;;27.30;99.90;;;;;;5040164;28;20092;-83
2022/08/04 07:59:45;;;;;;;4.15;0.45;;;27.80;99.90;;;;;;5059004;28;20052;-84
2022/08/04 08:02:13;;;;;;;4.60;0.40;;;28.30;99.90;;;;;;5060939;28;20033;-82
2022/08/04 08:04:39;;;;;;;3.55;0.50;;;28.50;99.90;;;;;;5042463;28;20029;-83
2022/08/04 08:07:06;;;;;;;3.03;0.73;;;28.20;99.90;;;;;;5061128;28;20512;-83
2022/08/04 08:09:33;;;;;;;4.80;1.10;;;27.70;99.90;;;;;;5041518;28;20020;-83
2022/08/04 08:12:00;;;;;;;3.63;0.82;;;27.60;99.90;;;;;;5030762;28;20127;-82
2022/08/04 08:14:27;;;;;;;5.18;0.85;;;27.50;99.90;;;;;;5045097;28;20032;-83
2022/08/04 08:16:52;;;;;;;2.40;0.50;;;27.40;99.90;;;;;;5030862;28;20119;-83
2022/08/04 08:19:19;;;;;;;4.57;0.70;;;27.50;99.90;;;;;;5041464;28;20171;-82
2022/08/04 08:21:48;;;;;;;2.65;0.40;;;27.70;99.90;;;;;;5060735;28;20132;-83
2022/08/04 08:24:15;;;;;;;4.53;0.82;;;28.00;99.90;;;;;;5032305;28;20044;-83
2022/08/04 08:26:40;;;;;;;5.63;1.08;;;27.50;99.90;;;;;;5043032;28;20036;-84
2022/08/04 08:29:06;;;;;;;6.60;0.50;;;27.50;99.90;;;;;;5040183;28;20020;-83
2022/08/04 08:31:33;;;;;;;1.98;0.40;;;27.90;99.90;;;;;;5029795;28;20029;-83
2022/08/04 08:34:00;;;;;;;4.13;0.80;;;28.70;99.90;;;;;;5058690;28;20048;-82
2022/08/04 08:36:45;;;;;;;6.57;1.08;;;28.60;99.90;;;;;;5023410;28;20334;-84
2022/08/04 08:39:24;;;;;;;2.67;0.75;;;28.50;99.90;;;;;;5057383;28;20604;-84
2022/08/04 08:42:17;;;;;;;5.10;1.05;;;28.40;99.90;;;;;;5041016;28;20037;-82
2022/08/04 08:45:23;;;;;;;3.60;0.60;;;28.30;99.90;;;;;;5026462;28;20081;-83
2022/08/04 08:48:16;;;;;;;4.68;0.68;;;28.70;99.90;;;;;;5059667;28;20074;-83
2022/08/04 08:51:30;;;;;;;3.45;0.63;;;28.80;99.90;;;;;;5059143;28;20025;-83
2022/08/04 08:54:08;;;;;;;7.05;0.70;;;28.90;99.90;;;;;;5039297;28;20029;-84
2022/08/04 08:57:12;;;;;;;3.10;0.60;;;29.30;99.90;;;;;;5045994;28;20184;-84
2022/08/04 09:00:15;;;;;;;7.18;0.70;;;28.90;99.90;;;;;;5026443;28;20417;-84
2022/08/04 09:02:51;;;;;;;7.35;0.80;;;29.20;99.90;;;;;;5047661;28;20359;-84
2022/08/04 09:05:38;;;;;;;6.35;1.10;;;29.30;99.90;;;;;;5041326;28;20516;-85
2022/08/04 09:08:12;;;;;;;5.65;0.60;;;29.20;99.90;;;;;;5046288;28;20035;-84
2022/08/04 09:10:46;;;;;;;4.72;0.60;;;29.50;99.90;;;;;;5021993;28;20036;-85
2022/08/04 09:13:31;;;;;;;4.63;0.70;;;29.50;99.90;;;;;;5057618;28;20021;-85
2022/08/04 09:16:02;;;;;;;4.35;0.70;;;29.30;99.90;;;;;;5059895;28;20040;-85
2022/08/04 09:18:53;;;;;;;6.20;0.95;;;29.10;99.90;;;;;;5026196;28;20029;-85
2022/08/04 09:21:36;;;;;;;5.25;0.65;;;28.70;99.90;;;;;;5045200;28;20032;-86
2022/08/04 09:24:17;;;;;;;5.85;0.73;;;28.90;99.90;;;;;;5046345;28;20401;-86
2022/08/04 09:27:02;;;;;;;7.25;0.80;;;29.20;99.90;;;;;;5058166;28;20125;-84
2022/08/04 09:29:46;;;;;;;4.82;0.77;;;29.50;99.90;;;;;;5057971;28;20481;-85
2022/08/04 09:32:31;;;;;;;3.90;0.75;;;29.60;99.90;;;;;;5023900;28;20477;-84
2022/08/04 09:35:12;;;;;;;5.65;0.75;;;29.80;99.90;;;;;;5035959;28;20107;-85
2022/08/04 09:38:15;;;;;;;2.15;0.40;;;29.80;99.90;;;;;;5041447;28;20377;-84
2022/08/04 09:41:05;;;;;;;3.42;0.50;;;30.30;99.90;;;;;;5024756;28;20053;-85
2022/08/04 09:43:49;;;;;;;2.90;0.57;;;30.30;99.90;;;;;;5042355;28;20029;-86
2022/08/04 09:46:29;;;;;;;6.68;0.50;;;30.50;99.90;;;;;;5057843;28;20063;-86
2022/08/04 09:49:11;;;;;;;2.00;0.65;;;30.60;99.90;;;;;;5045344;28;20112;-87
2022/08/04 09:51:49;;;;;;;5.15;0.70;;;30.60;99.90;;;;;;5024729;28;20033;-85
2022/08/04 09:54:22;;;;;;;2.10;0.40;;;30.50;99.90;;;;;;5029495;28;20116;-86
2022/08/04 09:57:15;;;;;;;3.00;0.73;;;31.00;99.90;;;;;;5042493;28;20383;-85
2022/08/04 09:59:47;;;;;;;2.55;0.47;;;30.50;99.90;;;;;;5024822;28;20021;-85
2022/08/04 10:02:16;;;;;;;5.70;0.73;;;30.30;99.90;;;;;;5023371;28;20093;-86
2022/08/04 10:04:43;;;;;;;4.32;0.60;;;30.70;99.90;;;;;;5028494;28;20484;-84
2022/08/04 10:07:15;;;;;;;6.82;1.02;;;31.10;99.90;;;;;;5029136;28;20036;-86
2022/08/04 10:10:02;;;;;;;3.67;0.75;;;30.60;99.90;;;;;;5041370;28;20025;-86
2022/08/04 10:12:37;;;;;;;5.65;0.80;;;30.20;99.90;;;;;;5044444;28;20029;-85
2022/08/04 10:15:10;;;;;;;4.55;1.73;;;30.40;99.90;;;;;;5025044;28;20024;-84
2022/08/04 10:18:13;;;;;;;5.50;1.63;;;30.30;99.90;;;;;;5056528;28;20075;-86
2022/08/04 10:21:17;;;;;;;5.45;0.80;;;29.90;99.90;;;;;;5037214;28;20073;-85
2022/08/04 10:24:06;;;;;;;5.28;0.80;;;30.10;99.90;;;;;;5039042;28;20063;-86
2022/08/04 10:26:59;;;;;;;7.55;0.80;;;29.90;99.90;;;;;;5030727;28;20079;-85
2022/08/04 10:29:36;;;;;;;2.83;0.80;;;30.00;99.90;;;;;;5038727;28;20037;-85
2022/08/04 10:32:40;;;;;;;4.47;0.85;;;29.80;99.90;;;;;;5025565;28;20112;-85
2022/08/04 10:35:13;;;;;;;5.35;1.25;;;29.20;99.90;;;;;;5013040;28;20036;-84
2022/08/04 10:38:18;;;;;;;4.32;0.82;;;28.70;99.90;;;;;;5023827;28;20434;-84
2022/08/04 10:40:47;;;;;;;3.60;0.70;;;28.40;99.90;;;;;;5039146;28;20052;-83
2022/08/04 10:43:33;;;;;;;5.82;0.70;;;28.20;99.90;;;;;;5045559;28;20036;-84
2022/08/04 10:46:25;;;;;;;6.25;0.80;;;28.00;99.90;;;;;;5036125;28;20031;-84
2022/08/04 10:49:01;;;;;;;6.72;0.60;;;28.00;99.90;;;;;;5056675;28;20029;-83
2022/08/04 10:51:32;;;;;;;5.18;0.60;;;27.90;99.90;;;;;;5041952;28;20033;-82
2022/08/04 10:54:34;;;;;;;5.13;0.85;;;27.80;99.90;;;;;;5032496;28;20380;-82
2022/08/04 10:57:07;;;;;;;5.05;0.88;;;27.60;99.90;;;;;;5042223;28;20025;-83
2022/08/04 10:59:57;;;;;;;6.13;0.68;;;27.30;99.90;;;;;;5050088;28;20032;-84
2022/08/04 11:02:50;;;;;;;5.43;0.50;;;27.20;99.90;;;;;;5049127;28;20076;-82
2022/08/04 11:05:42;;;;;;;4.30;0.50;;;26.90;99.90;;;;;;5044285;28;20025;-82
2022/08/04 11:08:16;;;;;;;3.83;0.60;;;26.40;99.90;;;;;;5042590;28;20033;-82
2022/08/04 11:10:59;;;;;;;3.45;0.50;;;26.20;99.90;;;;;;5047958;28;20033;-83
2022/08/04 11:13:36;;;;;;;3.92;0.60;;;26.00;99.90;;;;;;5037313;28;20036;-79
2022/08/04 11:16:08;;;;;;;4.50;0.85;;;25.50;99.90;;;;;;5062452;28;20507;-85
2022/08/04 11:19:10;;;;;;;2.90;0.60;;;24.90;99.90;;;;;;5059930;28;20033;-89
2022/08/04 11:21:46;;;;;;;4.65;0.60;;;24.40;99.90;;;;;;5025088;28;20078;-83
2022/08/04 11:24:34;;;;;;;4.45;0.73;;;24.10;99.90;;;;;;5044087;28;20048;-85
2022/08/04 11:27:04;;;;;;;4.47;0.70;;;23.90;99.90;;;;;;5059329;28;20454;-81
2022/08/04 11:29:57;;;;;;;3.45;0.60;;;23.70;99.90;;;;;;5043643;28;20056;-80
2022/08/04 11:32:43;;;;;;;6.72;0.63;;;23.60;99.90;;;;;;5024954;28;20040;-84
2022/08/04 11:35:26;;;;;;;5.13;0.60;;;23.50;99.90;;;;;;5040878;28;20021;-84
2022/08/04 11:38:02;;;;;;;3.35;0.60;;;23.40;99.90;;;;;;5060607;28;20455;-84
2022/08/04 11:40:36;;;;;;;6.90;0.50;;;23.40;99.90;;;;;;5033348;28;20141;-85
2022/08/04 11:43:08;;;;;;;3.85;0.57;;;23.30;99.90;;;;;;5042454;28;20040;-81
2022/08/04 11:45:40;;;;;;;4.80;0.88;;;23.30;99.90;;;;;;5047457;28;20492;-83
2022/08/04 11:48:09;;;;;;;3.83;0.40;;;23.40;99.90;;;;;;5061148;28;20032;-85
2022/08/04 11:50:47;;;;;;;5.15;0.40;;;23.40;99.90;;;;;;5010780;28;20896;-83
2022/08/04 11:53:18;;;;;;;3.03;0.40;;;23.40;99.90;;;;;;5026299;28;20033;-83
2022/08/04 11:55:45;;;;;;;2.58;0.50;;;23.60;99.90;;;;;;5031801;28;20028;-83
2022/08/04 11:58:11;;;;;;;4.38;0.40;;;23.70;99.90;;;;;;5024380;28;20032;-82
2022/08/04 12:00:44;;;;;;;6.43;1.02;;;23.80;99.90;;;;;;5058247;28;20025;-81
2022/08/04 12:03:36;;;;;;;4.53;0.88;;;24.00;99.90;;;;;;5015253;28;20047;-82
2022/08/04 12:06:20;;;;;;;4.38;0.82;;;23.90;99.90;;;;;;5061667;28;20028;-83
2022/08/04 12:08:55;;;;;;;3.38;0.70;;;23.90;99.90;;;;;;5046412;28;20036;-81
2022/08/04 12:11:39;;;;;;;4.68;0.80;;;23.90;99.90;;;;;;5047312;28;20024;-82
2022/08/04 12:14:26;;;;;;;5.22;0.93;;;23.70;99.90;;;;;;5025052;28;20311;-82
2022/08/04 12:17:03;;;;;;;5.78;0.63;;;23.80;99.90;;;;;;5031281;28;20021;-82
2022/08/04 12:19:36;;;;;;;2.05;0.50;;;23.70;99.90;;;;;;5040866;28;20037;-82
2022/08/04 12:22:13;;;;;;;2.90;0.60;;;23.70;99.90;;;;;;5043338;28;20782;-82
2022/08/04 12:24:47;;;;;;;4.80;1.13;;;23.60;99.90;;;;;;5038825;28;20079;-82
2022/08/04 12:27:22;;;;;;;4.47;0.80;;;23.60;99.90;;;;;;5024520;28;20036;-81
2022/08/04 12:29:51;;;;;;;3.92;0.50;;;23.60;99.90;;;;;;5056146;28;20033;-82
2022/08/04 12:32:27;;;;;;;9.57;0.73;;;23.70;99.90;;;;;;5041203;28;20496;-82
2022/08/04 12:35:13;;;;;;;2.83;0.50;;;23.70;99.90;;;;;;5046679;28;20021;-82
2022/08/04 12:38:09;;;;;;;3.90;0.55;;;23.80;99.90;;;;;;5060818;28;20095;-81
2022/08/04 12:40:48;;;;;;;4.07;0.57;;;23.90;99.90;;;;;;5060573;28;20044;-82
2022/08/04 12:43:23;;;;;;;5.78;0.80;;;24.10;99.90;;;;;;5041720;28;20043;-82
2022/08/04 12:46:01;;;;;;;3.53;0.90;;;24.40;99.90;;;;;;5047545;28;20029;-82
2022/08/04 12:48:27;;;;;;;3.25;0.60;;;24.70;99.90;;;;;;5038775;28;20033;-81
2022/08/04 12:50:56;;;;;;;6.40;1.25;;;25.20;99.90;;;;;;5029628;28;20029;-82
2022/08/04 12:53:43;;;;;;;2.30;0.52;;;25.40;99.90;;;;;;5039577;28;20458;-82
2022/08/04 12:56:10;;;;;;;2.65;0.70;;;26.00;99.90;;;;;;5029183;28;20021;-82
2022/08/04 12:58:40;;;;;;;5.45;0.80;;;25.90;99.90;;;;;;5057041;28;20021;-81
2022/08/04 13:01:10;;;;;;;2.95;0.60;;;25.90;99.90;;;;;;5040526;28;20060;-81
2022/08/04 13:03:40;;;;;;;3.58;1.15;;;25.90;99.90;;;;;;5046728;28;20025;-81
2022/08/04 13:06:09;;;;;;;3.10;0.80;;;26.10;99.90;;;;;;5023274;28;20158;-81
2022/08/04 13:08:38;;;;;;;3.53;0.68;;;25.90;99.90;;;;;;5039109;28;20482;-82
2022/08/04 13:11:05;;;;;;;1.40;0.60;;;25.80;99.90;;;;;;5029270;28;20086;-82
2022/08/04 13:13:34;;;;;;;4.05;0.80;;;25.70;99.90;;;;;;5047475;28;20480;-81
2022/08/04 13:16:01;;;;;;;;;;;25.50;99.90;;;;;;5041861;28;20051;-82
2022/08/04 13:18:30;;;;;;;2.75;0.40;;;25.50;99.90;;;;;;5030007;28;20010;-81
2022/08/04 13:21:06;;;;;;;3.13;0.40;;;25.50;99.90;;;;;;5039078;28;20090;-81
2022/08/04 13:23:32;;;;;;;2.78;0.40;;;25.60;99.90;;;;;;5059015;28;20432;-81
2022/08/04 13:25:58;;;;;;;3.63;0.60;;;25.50;99.90;;;;;;5027902;28;20087;-82
2022/08/04 13:28:26;;;;;;;3.75;0.40;;;25.40;99.90;;;;;;5040396;28;20052;-81
2022/08/04 13:30:56;;;;;;;2.13;0.30;;;25.40;99.90;;;;;;5053904;28;20120;-83
2022/08/04 13:33:31;;;;;;;3.38;0.60;;;25.50;99.90;;;;;;5046240;28;20129;-83
2022/08/04 13:36:00;;;;;;;3.90;0.60;;;25.30;99.90;;;;;;5041790;28;20020;-81
2022/08/04 13:38:28;;;;;;;2.38;0.50;;;25.30;99.90;;;;;;5055995;28;20043;-81